Wetterdaten: Woche 10.04.17 - 16.04.17 (KW15)
Datum Zeit Temp. I. Temp. A. Feuchte I. Feuchte A. Luftdruck Regen Wind Richtung Sonnenschein UV Solar Taupunkt Windchill Windben
10.04.2017 00:00 23,9 C 8,0 C 48 % 86 % 1021,0 hPa 0,0 l/m 0,0 km/h (0 Bft) N 0,00 h 0,0 UV-I 0 W/m 5,8 C 8,0 C 0,0 km/h (0 Bft)
10.04.2017 01:00 23,8 C 7,1 C 49 % 87 % 1020,9 hPa 0,0 l/m 0,0 km/h (0 Bft) N 0,00 h 0,0 UV-I 0 W/m 5,1 C 7,1 C 0,0 km/h (0 Bft)
10.04.2017 02:00 23,7 C 6,2 C 49 % 89 % 1020,5 hPa 0,0 l/m 0,0 km/h (0 Bft) N 0,00 h 0,0 UV-I 0 W/m 4,5 C 6,2 C 0,0 km/h (0 Bft)
10.04.2017 03:00 23,6 C 5,1 C 49 % 89 % 1019,9 hPa 0,0 l/m 0,0 km/h (0 Bft) N 0,00 h 0,0 UV-I 0 W/m 3,4 C 5,1 C 0,0 km/h (0 Bft)
10.04.2017 04:00 23,6 C 4,1 C 50 % 90 % 1019,4 hPa 0,0 l/m 0,0 km/h (0 Bft) N 0,00 h 0,0 UV-I 0 W/m 2,6 C 4,1 C 0,0 km/h (0 Bft)
10.04.2017 05:00 23,5 C 3,4 C 50 % 90 % 1019,0 hPa 0,0 l/m 0,0 km/h (0 Bft) N 0,00 h 0,0 UV-I 0 W/m 2,0 C 3,4 C 0,0 km/h (0 Bft)
10.04.2017 06:00 23,4 C 2,8 C 50 % 91 % 1018,9 hPa 0,0 l/m 0,0 km/h (0 Bft) N 0,00 h 0,0 UV-I 9 W/m 1,5 C 2,8 C 0,0 km/h (0 Bft)
10.04.2017 07:00 23,7 C 3,1 C 51 % 92 % 1018,9 hPa 0,0 l/m 0,0 km/h (0 Bft) N 0,03 h 0,5 UV-I 68 W/m 2,0 C 3,1 C 0,0 km/h (0 Bft)
10.04.2017 08:00 23,8 C 7,8 C 51 % 86 % 1018,5 hPa 0,0 l/m 0,0 km/h (0 Bft) N 1,00 h 0,8 UV-I 290 W/m 5,6 C 7,8 C 0,0 km/h (0 Bft)
10.04.2017 09:00 23,9 C 12,9 C 51 % 71 % 1018,2 hPa 0,0 l/m 2,7 km/h (1 Bft) S 1,00 h 1,7 UV-I 464 W/m 7,7 C 12,7 C 5,1 km/h (1 Bft)
10.04.2017 10:00 24,2 C 16,2 C 51 % 58 % 1018,0 hPa 0,0 l/m 5,4 km/h (1 Bft) S 1,00 h 2,8 UV-I 598 W/m 8,0 C 16,0 C 9,7 km/h (2 Bft)
10.04.2017 11:00 24,2 C 18,0 C 51 % 53 % 1017,5 hPa 0,0 l/m 6,4 km/h (2 Bft) S 1,00 h 4,0 UV-I 696 W/m 8,3 C 17,5 C 11,7 km/h (2 Bft)
10.04.2017 12:00 24,2 C 20,0 C 50 % 48 % 1016,7 hPa 0,0 l/m 6,0 km/h (2 Bft) S 1,00 h 4,6 UV-I 740 W/m 8,7 C 19,7 C 12,0 km/h (2 Bft)
10.04.2017 13:00 24,2 C 21,0 C 51 % 43 % 1015,9 hPa 0,0 l/m 8,8 km/h (2 Bft) W-SW 1,00 h 4,1 UV-I 570 W/m 8,1 C 20,0 C 17,9 km/h (3 Bft)
10.04.2017 14:00 24,2 C 21,5 C 51 % 41 % 1015,5 hPa 0,0 l/m 11,7 km/h (2 Bft) W-SW 0,93 h 3,7 UV-I 564 W/m 7,5 C 19,9 C 22,5 km/h (4 Bft)
10.04.2017 15:00 24,0 C 21,8 C 49 % 35 % 1015,0 hPa 0,0 l/m 10,0 km/h (2 Bft) W-SW 1,00 h 3,2 UV-I 643 W/m 5,8 C 20,6 C 19,5 km/h (3 Bft)
10.04.2017 16:00 23,8 C 21,8 C 44 % 33 % 1014,5 hPa 0,0 l/m 7,1 km/h (2 Bft) W 0,97 h 1,9 UV-I 343 W/m 4,9 C 21,2 C 14,4 km/h (3 Bft)
10.04.2017 17:00 23,8 C 20,6 C 45 % 36 % 1014,2 hPa 0,0 l/m 4,8 km/h (1 Bft) W-NW 0,58 h 0,9 UV-I 165 W/m 4,9 C 20,2 C 10,0 km/h (2 Bft)
10.04.2017 18:00 23,7 C 18,5 C 45 % 49 % 1014,2 hPa 0,0 l/m 9,5 km/h (2 Bft) N 0,00 h 0,0 UV-I 64 W/m 7,3 C 16,9 C 16,2 km/h (3 Bft)
10.04.2017 19:00 23,8 C 14,4 C 46 % 73 % 1014,7 hPa 0,0 l/m 6,8 km/h (2 Bft) N 0,00 h 0,0 UV-I 30 W/m 9,6 C 13,4 C 12,4 km/h (3 Bft)
10.04.2017 20:00 23,8 C 12,7 C 46 % 82 % 1016,1 hPa 0,8 l/m 7,8 km/h (2 Bft) N-NW 0,00 h 0,0 UV-I 0 W/m 9,6 C 10,9 C 12,4 km/h (3 Bft)
10.04.2017 21:00 23,8 C 10,8 C 47 % 89 % 1016,7 hPa 0,2 l/m 10,7 km/h (2 Bft) N-NW 0,00 h 0,0 UV-I 0 W/m 9,0 C 8,2 C 16,6 km/h (3 Bft)
10.04.2017 22:00 24,1 C 9,4 C 49 % 88 % 1017,1 hPa 0,0 l/m 3,6 km/h (1 Bft) N-NW 0,00 h 0,0 UV-I 0 W/m 7,6 C 9,1 C 8,0 km/h (2 Bft)
10.04.2017 23:00 24,0 C 8,6 C 49 % 87 % 1017,8 hPa 0,0 l/m 2,6 km/h (1 Bft) N-NW 0,00 h 0,0 UV-I 0 W/m 6,6 C 8,4 C 6,5 km/h (2 Bft)
11.04.2017 00:00 23,8 C 8,3 C 49 % 85 % 1018,2 hPa 0,0 l/m 5,2 km/h (1 Bft) N-NW 0,00 h 0,0 UV-I 0 W/m 6,0 C 7,2 C 10,1 km/h (2 Bft)
11.04.2017 01:00 23,7 C 7,3 C 49 % 81 % 1018,9 hPa 0,0 l/m 7,8 km/h (2 Bft) N 0,00 h 0,0 UV-I 0 W/m 4,3 C 5,9 C 14,1 km/h (3 Bft)
11.04.2017 02:00 23,7 C 6,4 C 49 % 78 % 1019,2 hPa 0,0 l/m 6,5 km/h (2 Bft) N-NW 0,00 h 0,0 UV-I 0 W/m 3,0 C 5,2 C 11,1 km/h (2 Bft)
11.04.2017 03:00 23,6 C 5,6 C 50 % 80 % 1019,6 hPa 0,2 l/m 0,8 km/h (0 Bft) NW 0,00 h 0,0 UV-I 0 W/m 2,5 C 5,6 C 2,3 km/h (1 Bft)
11.04.2017 04:00 23,6 C 5,0 C 50 % 81 % 1019,8 hPa 0,0 l/m 0,7 km/h (0 Bft) NW 0,00 h 0,0 UV-I 0 W/m 2,0 C 5,0 C 2,2 km/h (1 Bft)
11.04.2017 05:00 23,6 C 5,2 C 50 % 77 % 1020,0 hPa 0,0 l/m 1,0 km/h (0 Bft) W-NW 0,00 h 0,0 UV-I 0 W/m 1,4 C 5,2 C 2,4 km/h (1 Bft)
11.04.2017 06:00 23,7 C 5,5 C 51 % 74 % 1020,4 hPa 0,0 l/m 0,4 km/h (0 Bft) W 0,00 h 0,0 UV-I 10 W/m 1,2 C 5,5 C 1,2 km/h (1 Bft)
11.04.2017 07:00 23,9 C 5,7 C 51 % 74 % 1020,9 hPa 0,0 l/m 1,3 km/h (1 Bft) W-NW 0,00 h 0,0 UV-I 34 W/m 1,3 C 5,7 C 3,4 km/h (1 Bft)
11.04.2017 08:00 24,0 C 6,3 C 51 % 71 % 1021,6 hPa 0,0 l/m 5,1 km/h (1 Bft) NW 0,07 h 0,6 UV-I 106 W/m 1,5 C 5,8 C 10,9 km/h (2 Bft)
11.04.2017 09:00 24,2 C 6,9 C 51 % 68 % 1022,0 hPa 0,0 l/m 6,6 km/h (2 Bft) W-NW 0,48 h 1,0 UV-I 154 W/m 1,4 C 5,7 C 12,3 km/h (3 Bft)
11.04.2017 10:00 24,3 C 7,6 C 51 % 66 % 1022,7 hPa 0,0 l/m 7,3 km/h (2 Bft) W-NW 1,00 h 1,6 UV-I 254 W/m 1,6 C 6,2 C 12,8 km/h (3 Bft)
11.04.2017 11:00 24,3 C 8,8 C 51 % 62 % 1023,0 hPa 0,0 l/m 5,2 km/h (1 Bft) W-NW 0,85 h 2,6 UV-I 415 W/m 2,0 C 8,0 C 9,3 km/h (2 Bft)
11.04.2017 12:00 24,4 C 10,6 C 51 % 53 % 1022,8 hPa 0,0 l/m 5,2 km/h (1 Bft) W-NW 1,00 h 4,0 UV-I 666 W/m 1,3 C 9,8 C 10,1 km/h (2 Bft)
11.04.2017 13:00 24,4 C 11,3 C 51 % 47 % 1022,6 hPa 0,0 l/m 6,2 km/h (2 Bft) NW 1,00 h 3,2 UV-I 408 W/m 0,5 C 10,2 C 11,1 km/h (2 Bft)
11.04.2017 14:00 24,4 C 11,2 C 50 % 47 % 1022,8 hPa 0,0 l/m 7,6 km/h (2 Bft) NW 1,00 h 2,2 UV-I 291 W/m 0,3 C 10,0 C 13,2 km/h (3 Bft)
11.04.2017 15:00 24,4 C 10,8 C 51 % 48 % 1022,6 hPa 0,0 l/m 6,9 km/h (2 Bft) W-NW 1,00 h 1,3 UV-I 182 W/m 0,2 C 9,5 C 12,0 km/h (2 Bft)
11.04.2017 16:00 24,4 C 10,4 C 51 % 51 % 1022,8 hPa 0,0 l/m 9,1 km/h (2 Bft) NW 0,52 h 1,0 UV-I 146 W/m 0,6 C 8,4 C 14,6 km/h (3 Bft)
11.04.2017 17:00 24,4 C 9,8 C 51 % 54 % 1022,9 hPa 0,0 l/m 6,4 km/h (2 Bft) N-NW 0,08 h 0,7 UV-I 106 W/m 0,9 C 9,1 C 11,9 km/h (2 Bft)
11.04.2017 18:00 24,3 C 9,5 C 50 % 54 % 1023,1 hPa 0,0 l/m 5,6 km/h (1 Bft) W-NW 0,00 h 0,0 UV-I 62 W/m 0,7 C 8,8 C 10,4 km/h (2 Bft)
11.04.2017 19:00 24,3 C 8,8 C 50 % 56 % 1023,4 hPa 0,0 l/m 4,8 km/h (1 Bft) W-NW 0,00 h 0,0 UV-I 15 W/m 0,4 C 8,3 C 9,9 km/h (2 Bft)
11.04.2017 20:00 24,3 C 8,0 C 50 % 58 % 1023,8 hPa 0,0 l/m 2,1 km/h (1 Bft) W-NW 0,00 h 0,0 UV-I 0 W/m 0,2 C 8,0 C 5,1 km/h (1 Bft)
11.04.2017 21:00 24,3 C 7,3 C 50 % 62 % 1024,0 hPa 0,0 l/m 0,5 km/h (0 Bft) W 0,00 h 0,0 UV-I 0 W/m 0,4 C 7,3 C 1,7 km/h (1 Bft)
11.04.2017 22:00 24,4 C 5,7 C 52 % 68 % 1023,8 hPa 0,0 l/m 0,0 km/h (0 Bft) N 0,00 h 0,0 UV-I 0 W/m 0,3 C 5,7 C 0,0 km/h (0 Bft)
11.04.2017 23:00 24,3 C 4,6 C 52 % 72 % 1024,0 hPa 0,0 l/m 0,0 km/h (0 Bft) N 0,00 h 0,0 UV-I 0 W/m -0,1 C 4,6 C 0,0 km/h (0 Bft)
12.04.2017 00:00 24,1 C 3,3 C 52 % 78 % 1023,8 hPa 0,0 l/m 0,1 km/h (0 Bft) O-SO 0,00 h 0,0 UV-I 0 W/m -0,2 C 3,3 C 0,3 km/h (0 Bft)
12.04.2017 01:00 24,0 C 2,6 C 51 % 83 % 1023,1 hPa 0,0 l/m 0,0 km/h (0 Bft) SO 0,00 h 0,0 UV-I 0 W/m -0,0 C 2,6 C 0,1 km/h (0 Bft)
12.04.2017 02:00 23,9 C 2,6 C 51 % 83 % 1022,5 hPa 0,0 l/m 0,0 km/h (0 Bft) N 0,00 h 0,0 UV-I 0 W/m 0,0 C 2,6 C 0,0 km/h (0 Bft)
12.04.2017 03:00 23,8 C 2,5 C 51 % 84 % 1022,1 hPa 0,0 l/m 0,0 km/h (0 Bft) N 0,00 h 0,0 UV-I 0 W/m 0,1 C 2,5 C 0,0 km/h (0 Bft)
12.04.2017 04:00 23,8 C 2,2 C 51 % 85 % 1021,3 hPa 0,0 l/m 0,1 km/h (0 Bft) O 0,00 h 0,0 UV-I 0 W/m 0,0 C 2,2 C 0,6 km/h (0 Bft)
12.04.2017 05:00 23,8 C 2,6 C 52 % 85 % 1020,9 hPa 0,0 l/m 0,1 km/h (0 Bft) S 0,00 h 0,0 UV-I 0 W/m 0,3 C 2,6 C 0,5 km/h (0 Bft)
12.04.2017 06:00 23,8 C 3,4 C 52 % 81 % 1020,8 hPa 0,0 l/m 0,2 km/h (0 Bft) S-SO 0,00 h 0,0 UV-I 13 W/m 0,5 C 3,4 C 0,8 km/h (0 Bft)
12.04.2017 07:00 23,9 C 4,3 C 52 % 77 % 1020,6 hPa 0,0 l/m 0,8 km/h (0 Bft) S-SW 0,00 h 0,0 UV-I 48 W/m 0,7 C 4,3 C 2,6 km/h (1 Bft)
12.04.2017 08:00 24,1 C 5,4 C 53 % 73 % 1020,5 hPa 0,0 l/m 2,2 km/h (1 Bft) S 0,00 h 0,5 UV-I 79 W/m 1,1 C 5,4 C 5,7 km/h (1 Bft)
12.04.2017 09:00 24,3 C 6,2 C 51 % 71 % 1020,0 hPa 0,0 l/m 3,4 km/h (1 Bft) S 0,38 h 1,0 UV-I 157 W/m 1,4 C 6,1 C 7,7 km/h (2 Bft)
12.04.2017 10:00 24,3 C 8,5 C 48 % 65 % 1019,4 hPa 0,0 l/m 3,7 km/h (1 Bft) S-SW 1,00 h 2,1 UV-I 359 W/m 2,4 C 8,3 C 9,7 km/h (2 Bft)
12.04.2017 11:00 24,3 C 11,1 C 45 % 56 % 1018,7 hPa 0,0 l/m 8,4 km/h (2 Bft) W-SW 1,00 h 3,0 UV-I 517 W/m 2,7 C 9,5 C 16,7 km/h (3 Bft)
12.04.2017 12:00 24,1 C 11,8 C 43 % 53 % 1017,9 hPa 0,0 l/m 10,0 km/h (2 Bft) SW 1,00 h 3,4 UV-I 537 W/m 2,5 C 9,5 C 17,9 km/h (3 Bft)
12.04.2017 13:00 23,9 C 12,7 C 40 % 50 % 1016,7 hPa 0,0 l/m 11,8 km/h (2 Bft) W-SW 0,93 h 3,0 UV-I 452 W/m 2,5 C 9,9 C 21,0 km/h (4 Bft)
12.04.2017 14:00 23,8 C 12,2 C 42 % 53 % 1016,0 hPa 0,0 l/m 5,3 km/h (1 Bft) W-SW 0,53 h 1,4 UV-I 170 W/m 2,9 C 11,3 C 11,2 km/h (2 Bft)
12.04.2017 15:00 23,8 C 12,9 C 44 % 51 % 1014,7 hPa 0,0 l/m 5,4 km/h (1 Bft) W-SW 1,00 h 1,6 UV-I 224 W/m 3,1 C 12,2 C 11,1 km/h (2 Bft)
12.04.2017 16:00 23,9 C 14,1 C 44 % 48 % 1013,6 hPa 0,0 l/m 7,2 km/h (2 Bft) W-SW 1,00 h 1,4 UV-I 235 W/m 3,4 C 13,0 C 15,3 km/h (3 Bft)
12.04.2017 17:00 23,9 C 14,0 C 44 % 49 % 1013,1 hPa 0,0 l/m 11,4 km/h (2 Bft) W-SW 0,22 h 0,7 UV-I 123 W/m 3,4 C 11,4 C 19,4 km/h (3 Bft)
12.04.2017 18:00 23,9 C 13,6 C 45 % 51 % 1012,6 hPa 0,0 l/m 6,6 km/h (2 Bft) W 0,00 h 0,0 UV-I 60 W/m 3,5 C 12,4 C 12,3 km/h (3 Bft)
12.04.2017 19:00 23,9 C 13,1 C 45 % 54 % 1011,9 hPa 0,0 l/m 1,2 km/h (1 Bft) W-SW 0,00 h 0,0 UV-I 13 W/m 4,0 C 13,1 C 4,0 km/h (1 Bft)
12.04.2017 20:00 23,9 C 12,2 C 45 % 62 % 1011,6 hPa 0,0 l/m 2,7 km/h (1 Bft) W-SW 0,00 h 0,0 UV-I 0 W/m 5,0 C 12,2 C 7,2 km/h (2 Bft)
12.04.2017 21:00 23,9 C 11,7 C 46 % 62 % 1011,2 hPa 0,0 l/m 2,9 km/h (1 Bft) W-SW 0,00 h 0,0 UV-I 0 W/m 4,7 C 11,7 C 8,0 km/h (2 Bft)
12.04.2017 22:00 24,1 C 11,9 C 48 % 59 % 1010,9 hPa 0,0 l/m 3,5 km/h (1 Bft) SW 0,00 h 0,0 UV-I 0 W/m 4,2 C 11,8 C 8,9 km/h (2 Bft)
12.04.2017 23:00 24,0 C 11,7 C 47 % 62 % 1011,0 hPa 0,0 l/m 4,3 km/h (1 Bft) W 0,00 h 0,0 UV-I 0 W/m 4,6 C 11,5 C 10,5 km/h (2 Bft)
13.04.2017 00:00 23,8 C 11,3 C 48 % 66 % 1010,7 hPa 0,0 l/m 5,5 km/h (1 Bft) W 0,00 h 0,0 UV-I 0 W/m 5,2 C 10,7 C 11,9 km/h (2 Bft)
13.04.2017 01:00 23,7 C 10,7 C 48 % 72 % 1010,3 hPa 0,0 l/m 2,6 km/h (1 Bft) W-SW 0,00 h 0,0 UV-I 0 W/m 5,8 C 10,7 C 7,3 km/h (2 Bft)
13.04.2017 02:00 23,7 C 10,3 C 48 % 74 % 1010,0 hPa 0,0 l/m 2,0 km/h (1 Bft) W 0,00 h 0,0 UV-I 0 W/m 5,8 C 10,3 C 5,9 km/h (2 Bft)
13.04.2017 03:00 23,6 C 10,1 C 49 % 73 % 1009,8 hPa 0,0 l/m 5,1 km/h (1 Bft) W 0,00 h 0,0 UV-I 0 W/m 5,5 C 9,7 C 10,5 km/h (2 Bft)
13.04.2017 04:00 23,6 C 9,4 C 49 % 78 % 1009,6 hPa 0,0 l/m 3,3 km/h (1 Bft) W 0,00 h 0,0 UV-I 0 W/m 5,7 C 9,0 C 8,1 km/h (2 Bft)
13.04.2017 05:00 23,6 C 8,9 C 49 % 81 % 1009,4 hPa 0,0 l/m 4,3 km/h (1 Bft) W 0,00 h 0,0 UV-I 0 W/m 5,8 C 8,5 C 9,9 km/h (2 Bft)
13.04.2017 06:00 23,6 C 8,5 C 49 % 80 % 1009,7 hPa 0,0 l/m 4,0 km/h (1 Bft) W 0,00 h 0,0 UV-I 12 W/m 5,3 C 8,1 C 9,7 km/h (2 Bft)
13.04.2017 07:00 23,7 C 8,4 C 50 % 78 % 1010,2 hPa 0,0 l/m 3,7 km/h (1 Bft) W 0,00 h 0,0 UV-I 47 W/m 4,8 C 8,1 C 8,6 km/h (2 Bft)
13.04.2017 08:00 24,1 C 8,2 C 52 % 77 % 1010,8 hPa 0,0 l/m 4,5 km/h (1 Bft) W 0,00 h 0,6 UV-I 45 W/m 4,5 C 7,9 C 10,0 km/h (2 Bft)
13.04.2017 09:00 24,1 C 8,4 C 51 % 78 % 1011,1 hPa 0,0 l/m 9,8 km/h (2 Bft) W 0,03 h 0,7 UV-I 92 W/m 4,8 C 5,8 C 17,3 km/h (3 Bft)
13.04.2017 10:00 23,9 C 9,0 C 49 % 76 % 1011,5 hPa 0,0 l/m 11,0 km/h (2 Bft) W 0,63 h 1,4 UV-I 174 W/m 5,0 C 5,9 C 18,9 km/h (3 Bft)
13.04.2017 11:00 24,0 C 8,2 C 49 % 82 % 1012,0 hPa 0,2 l/m 11,1 km/h (2 Bft) W-NW 0,60 h 1,4 UV-I 165 W/m 5,3 C 5,0 C 18,4 km/h (3 Bft)
13.04.2017 12:00 24,0 C 10,4 C 48 % 72 % 1012,1 hPa 0,0 l/m 10,0 km/h (2 Bft) W 0,77 h 2,9 UV-I 435 W/m 5,5 C 7,9 C 17,6 km/h (3 Bft)
13.04.2017 13:00 23,9 C 9,8 C 48 % 67 % 1012,4 hPa 0,0 l/m 10,7 km/h (2 Bft) W 0,80 h 1,8 UV-I 208 W/m 4,0 C 7,1 C 18,0 km/h (3 Bft)
13.04.2017 14:00 23,9 C 9,8 C 48 % 69 % 1012,5 hPa 0,0 l/m 8,6 km/h (2 Bft) W 0,85 h 2,4 UV-I 278 W/m 4,3 C 7,9 C 16,4 km/h (3 Bft)
13.04.2017 15:00 24,0 C 10,9 C 49 % 65 % 1012,2 hPa 0,0 l/m 11,5 km/h (2 Bft) W-SW 0,52 h 1,9 UV-I 293 W/m 4,6 C 7,9 C 19,6 km/h (3 Bft)
13.04.2017 16:00 24,0 C 10,0 C 49 % 71 % 1012,5 hPa 0,0 l/m 5,7 km/h (1 Bft) W-SW 0,18 h 0,8 UV-I 114 W/m 5,0 C 9,0 C 11,8 km/h (2 Bft)
13.04.2017 17:00 24,1 C 9,9 C 49 % 71 % 1012,4 hPa 0,0 l/m 3,7 km/h (1 Bft) W 0,00 h 0,5 UV-I 61 W/m 4,9 C 9,5 C 8,8 km/h (2 Bft)
13.04.2017 18:00 24,3 C 10,2 C 48 % 64 % 1012,6 hPa 0,0 l/m 3,1 km/h (1 Bft) W 0,00 h 0,5 UV-I 48 W/m 3,7 C 10,1 C 8,1 km/h (2 Bft)
13.04.2017 19:00 24,1 C 9,7 C 49 % 64 % 1012,9 hPa 0,0 l/m 2,7 km/h (1 Bft) W 0,00 h 0,0 UV-I 12 W/m 3,1 C 9,3 C 6,6 km/h (2 Bft)
13.04.2017 20:00 23,9 C 9,1 C 49 % 67 % 1013,5 hPa 0,0 l/m 0,2 km/h (0 Bft) W 0,00 h 0,0 UV-I 0 W/m 3,3 C 9,1 C 1,3 km/h (1 Bft)
13.04.2017 21:00 23,9 C 8,8 C 50 % 69 % 1013,9 hPa 0,0 l/m 0,0 km/h (0 Bft) N 0,00 h 0,0 UV-I 0 W/m 3,4 C 8,8 C 0,2 km/h (0 Bft)
13.04.2017 22:00 24,2 C 8,4 C 51 % 71 % 1014,0 hPa 0,0 l/m 0,5 km/h (0 Bft) W 0,00 h 0,0 UV-I 0 W/m 3,4 C 8,4 C 2,5 km/h (1 Bft)
13.04.2017 23:00 24,2 C 8,1 C 51 % 71 % 1014,2 hPa 0,0 l/m 0,5 km/h (0 Bft) W-SW 0,00 h 0,0 UV-I 0 W/m 3,2 C 8,1 C 2,5 km/h (1 Bft)
14.04.2017 00:00 24,0 C 7,7 C 51 % 71 % 1014,3 hPa 0,0 l/m 0,1 km/h (0 Bft) SW 0,00 h 0,0 UV-I 0 W/m 2,8 C 7,7 C 0,4 km/h (0 Bft)
14.04.2017 01:00 23,9 C 7,3 C 51 % 72 % 1014,2 hPa 0,0 l/m 0,0 km/h (0 Bft) N 0,00 h 0,0 UV-I 0 W/m 2,6 C 7,3 C 0,2 km/h (0 Bft)
14.04.2017 02:00 23,8 C 7,2 C 51 % 72 % 1014,2 hPa 0,0 l/m 0,3 km/h (0 Bft) W-SW 0,00 h 0,0 UV-I 0 W/m 2,5 C 7,2 C 1,4 km/h (1 Bft)
14.04.2017 03:00 23,8 C 7,1 C 51 % 72 % 1014,3 hPa 0,0 l/m 0,7 km/h (0 Bft) W-SW 0,00 h 0,0 UV-I 0 W/m 2,4 C 7,1 C 2,8 km/h (1 Bft)
14.04.2017 04:00 23,7 C 6,8 C 51 % 74 % 1014,3 hPa 0,0 l/m 0,0 km/h (0 Bft) W-SW 0,00 h 0,0 UV-I 0 W/m 2,5 C 6,8 C 0,4 km/h (0 Bft)
14.04.2017 05:00 23,8 C 6,5 C 53 % 76 % 1014,3 hPa 0,0 l/m 0,0 km/h (0 Bft) N 0,00 h 0,0 UV-I 0 W/m 2,6 C 6,5 C 0,0 km/h (0 Bft)
14.04.2017 06:00 24,0 C 6,2 C 53 % 78 % 1014,7 hPa 0,0 l/m 0,0 km/h (0 Bft) N 0,00 h 0,0 UV-I 14 W/m 2,7 C 6,2 C 0,0 km/h (0 Bft)
14.04.2017 07:00 23,9 C 6,0 C 53 % 81 % 1015,2 hPa 0,0 l/m 0,0 km/h (0 Bft) W-SW 0,00 h 0,5 UV-I 67 W/m 2,9 C 6,0 C 0,2 km/h (0 Bft)
14.04.2017 08:00 24,0 C 6,9 C 53 % 77 % 1015,4 hPa 0,0 l/m 0,8 km/h (0 Bft) W-SW 0,67 h 0,8 UV-I 205 W/m 3,2 C 6,9 C 1,9 km/h (1 Bft)
14.04.2017 09:00 24,1 C 9,1 C 53 % 66 % 1015,5 hPa 0,0 l/m 4,2 km/h (1 Bft) W-NW 0,77 h 1,4 UV-I 313 W/m 3,0 C 8,7 C 9,0 km/h (2 Bft)
14.04.2017 10:00 23,7 C 9,9 C 53 % 57 % 1015,6 hPa 0,0 l/m 5,0 km/h (1 Bft) W-NW 0,93 h 2,2 UV-I 352 W/m 1,9 C 9,2 C 10,2 km/h (2 Bft)
14.04.2017 11:00 24,1 C 11,0 C 52 % 53 % 1015,6 hPa 0,0 l/m 7,6 km/h (2 Bft) W-NW 1,00 h 2,9 UV-I 489 W/m 1,7 C 9,7 C 15,3 km/h (3 Bft)
14.04.2017 12:00 24,3 C 11,7 C 52 % 50 % 1015,5 hPa 0,0 l/m 7,3 km/h (2 Bft) W 1,00 h 3,7 UV-I 581 W/m 1,7 C 10,3 C 14,5 km/h (3 Bft)
14.04.2017 13:00 24,4 C 11,2 C 48 % 52 % 1015,3 hPa 0,0 l/m 4,3 km/h (1 Bft) W 1,00 h 2,3 UV-I 253 W/m 1,7 C 10,5 C 9,2 km/h (2 Bft)
14.04.2017 14:00 24,6 C 11,4 C 47 % 53 % 1015,2 hPa 0,0 l/m 4,3 km/h (1 Bft) W-SW 0,88 h 2,2 UV-I 259 W/m 2,2 C 10,9 C 10,0 km/h (2 Bft)
14.04.2017 15:00 24,5 C 12,2 C 45 % 50 % 1015,0 hPa 0,0 l/m 5,6 km/h (1 Bft) W-SW 1,00 h 2,6 UV-I 458 W/m 2,0 C 11,7 C 12,7 km/h (3 Bft)
14.04.2017 16:00 24,3 C 12,3 C 44 % 49 % 1014,7 hPa 0,0 l/m 4,7 km/h (1 Bft) W 1,00 h 1,5 UV-I 248 W/m 2,0 C 11,8 C 11,1 km/h (2 Bft)
14.04.2017 17:00 24,4 C 11,8 C 44 % 51 % 1014,7 hPa 0,0 l/m 3,2 km/h (1 Bft) W 0,07 h 0,6 UV-I 101 W/m 2,0 C 11,5 C 8,4 km/h (2 Bft)
14.04.2017 18:00 24,6 C 11,4 C 46 % 53 % 1014,6 hPa 0,0 l/m 2,2 km/h (1 Bft) W 0,00 h 0,5 UV-I 68 W/m 2,1 C 11,4 C 5,5 km/h (1 Bft)
14.04.2017 19:00 24,8 C 10,9 C 47 % 55 % 1014,5 hPa 0,0 l/m 0,9 km/h (0 Bft) W-SW 0,00 h 0,0 UV-I 18 W/m 2,3 C 10,9 C 3,1 km/h (1 Bft)
14.04.2017 20:00 24,7 C 10,1 C 49 % 60 % 1014,9 hPa 0,0 l/m 0,0 km/h (0 Bft) N 0,00 h 0,0 UV-I 0 W/m 2,8 C 10,1 C 0,0 km/h (0 Bft)
14.04.2017 21:00 24,8 C 9,4 C 50 % 64 % 1015,1 hPa 0,0 l/m 0,0 km/h (0 Bft) N 0,00 h 0,0 UV-I 0 W/m 2,9 C 9,4 C 0,2 km/h (0 Bft)
14.04.2017 22:00 24,9 C 8,7 C 50 % 68 % 1015,1 hPa 0,0 l/m 0,0 km/h (0 Bft) N 0,00 h 0,0 UV-I 0 W/m 3,1 C 8,7 C 0,0 km/h (0 Bft)
14.04.2017 23:00 24,7 C 8,4 C 50 % 70 % 1015,0 hPa 0,0 l/m 0,0 km/h (0 Bft) N 0,00 h 0,0 UV-I 0 W/m 3,3 C 8,4 C 0,0 km/h (0 Bft)
15.04.2017 00:00 24,3 C 8,1 C 50 % 73 % 1014,9 hPa 0,0 l/m 0,0 km/h (0 Bft) N 0,00 h 0,0 UV-I 0 W/m 3,6 C 8,1 C 0,0 km/h (0 Bft)
15.04.2017 01:00 24,2 C 7,9 C 50 % 75 % 1014,8 hPa 0,0 l/m 0,0 km/h (0 Bft) N 0,00 h 0,0 UV-I 0 W/m 3,7 C 7,9 C 0,0 km/h (0 Bft)
15.04.2017 02:00 24,1 C 7,6 C 51 % 77 % 1014,4 hPa 0,0 l/m 0,0 km/h (0 Bft) N 0,00 h 0,0 UV-I 0 W/m 3,7 C 7,6 C 0,0 km/h (0 Bft)
15.04.2017 03:00 24,0 C 7,3 C 51 % 77 % 1014,2 hPa 0,0 l/m 0,0 km/h (0 Bft) N 0,00 h 0,0 UV-I 0 W/m 3,6 C 7,3 C 0,1 km/h (0 Bft)
15.04.2017 04:00 23,9 C 7,3 C 51 % 76 % 1013,9 hPa 0,0 l/m 0,0 km/h (0 Bft) N 0,00 h 0,0 UV-I 0 W/m 3,3 C 7,3 C 0,0 km/h (0 Bft)
15.04.2017 05:00 23,9 C 7,4 C 51 % 75 % 1013,3 hPa 0,0 l/m 0,1 km/h (0 Bft) S-SW 0,00 h 0,0 UV-I 0 W/m 3,3 C 7,4 C 0,6 km/h (0 Bft)
15.04.2017 06:00 23,9 C 7,7 C 51 % 75 % 1013,0 hPa 0,0 l/m 0,6 km/h (0 Bft) SW 0,00 h 0,0 UV-I 10 W/m 3,5 C 7,7 C 2,8 km/h (1 Bft)
15.04.2017 07:00 23,8 C 7,8 C 51 % 76 % 1013,1 hPa 0,0 l/m 1,6 km/h (1 Bft) S 0,00 h 0,5 UV-I 55 W/m 3,8 C 7,8 C 5,2 km/h (1 Bft)
15.04.2017 08:00 23,9 C 8,5 C 52 % 73 % 1013,1 hPa 0,0 l/m 5,3 km/h (1 Bft) W-SW 0,82 h 0,9 UV-I 248 W/m 3,9 C 8,0 C 11,3 km/h (2 Bft)
15.04.2017 09:00 24,1 C 9,9 C 52 % 66 % 1013,3 hPa 0,0 l/m 7,3 km/h (2 Bft) W-SW 1,00 h 1,6 UV-I 401 W/m 3,8 C 8,7 C 13,6 km/h (3 Bft)
15.04.2017 10:00 24,3 C 10,8 C 53 % 60 % 1013,7 hPa 0,0 l/m 10,0 km/h (2 Bft) W 1,00 h 1,9 UV-I 341 W/m 3,2 C 8,3 C 19,5 km/h (3 Bft)
15.04.2017 11:00 24,3 C 10,7 C 53 % 60 % 1013,6 hPa 0,0 l/m 8,8 km/h (2 Bft) W-SW 1,00 h 2,0 UV-I 311 W/m 3,4 C 8,8 C 17,0 km/h (3 Bft)
15.04.2017 12:00 24,3 C 11,3 C 52 % 59 % 1013,2 hPa 0,0 l/m 11,1 km/h (2 Bft) W-SW 1,00 h 1,9 UV-I 272 W/m 3,5 C 8,6 C 20,3 km/h (4 Bft)
15.04.2017 13:00 24,3 C 11,0 C 51 % 63 % 1013,1 hPa 0,0 l/m 12,7 km/h (3 Bft) W 0,67 h 1,6 UV-I 201 W/m 4,2 C 7,5 C 21,0 km/h (4 Bft)
15.04.2017 14:00 24,3 C 10,7 C 51 % 69 % 1012,9 hPa 0,0 l/m 10,7 km/h (2 Bft) W-SW 1,00 h 2,1 UV-I 295 W/m 5,3 C 8,1 C 20,9 km/h (4 Bft)
15.04.2017 15:00 24,3 C 10,8 C 51 % 70 % 1012,4 hPa 0,0 l/m 9,4 km/h (2 Bft) W-SW 0,22 h 1,0 UV-I 132 W/m 5,6 C 8,6 C 18,6 km/h (3 Bft)
15.04.2017 16:00 24,2 C 10,9 C 51 % 71 % 1012,3 hPa 0,0 l/m 9,5 km/h (2 Bft) W-SW 0,60 h 1,3 UV-I 218 W/m 5,9 C 8,9 C 18,0 km/h (3 Bft)
15.04.2017 17:00 24,4 C 11,7 C 51 % 70 % 1012,1 hPa 0,0 l/m 8,0 km/h (2 Bft) W 0,88 h 1,2 UV-I 340 W/m 6,4 C 10,0 C 14,8 km/h (3 Bft)
15.04.2017 18:00 24,6 C 10,4 C 52 % 74 % 1012,0 hPa 0,0 l/m 4,3 km/h (1 Bft) W-SW 0,00 h 0,0 UV-I 30 W/m 6,0 C 10,3 C 10,1 km/h (2 Bft)
15.04.2017 19:00 24,6 C 8,7 C 53 % 88 % 1012,1 hPa 0,2 l/m 3,4 km/h (1 Bft) W 0,00 h 0,0 UV-I 14 W/m 6,8 C 8,6 C 8,1 km/h (2 Bft)
15.04.2017 20:00 24,6 C 8,1 C 53 % 92 % 1012,4 hPa 0,6 l/m 3,0 km/h (1 Bft) W 0,00 h 0,0 UV-I 0 W/m 6,8 C 7,9 C 7,6 km/h (2 Bft)
15.04.2017 21:00 24,7 C 7,6 C 53 % 92 % 1013,0 hPa 0,0 l/m 3,5 km/h (1 Bft) W 0,00 h 0,0 UV-I 0 W/m 6,4 C 7,5 C 9,1 km/h (2 Bft)
15.04.2017 22:00 24,8 C 7,1 C 54 % 87 % 1013,6 hPa 0,0 l/m 7,0 km/h (2 Bft) W-NW 0,00 h 0,0 UV-I 0 W/m 5,1 C 5,9 C 14,2 km/h (3 Bft)
15.04.2017 23:00 24,8 C 6,3 C 54 % 85 % 1014,0 hPa 0,0 l/m 1,9 km/h (1 Bft) W-NW 0,00 h 0,0 UV-I 0 W/m 4,0 C 6,3 C 5,2 km/h (1 Bft)
16.04.2017 00:00 24,5 C 5,8 C 54 % 89 % 1014,3 hPa 0,0 l/m 0,5 km/h (0 Bft) W 0,00 h 0,0 UV-I 0 W/m 4,0 C 5,8 C 1,4 km/h (1 Bft)
16.04.2017 01:00 24,3 C 5,6 C 54 % 86 % 1014,7 hPa 0,0 l/m 3,5 km/h (1 Bft) W 0,00 h 0,0 UV-I 0 W/m 3,5 C 5,3 C 8,2 km/h (2 Bft)
16.04.2017 02:00 24,1 C 5,0 C 54 % 80 % 1015,0 hPa 0,0 l/m 0,4 km/h (0 Bft) W-NW 0,00 h 0,0 UV-I 0 W/m 1,9 C 5,0 C 1,4 km/h (1 Bft)
16.04.2017 03:00 24,0 C 4,2 C 54 % 85 % 1015,2 hPa 0,0 l/m 0,0 km/h (0 Bft) N 0,00 h 0,0 UV-I 0 W/m 1,9 C 4,2 C 0,1 km/h (0 Bft)
16.04.2017 04:00 23,9 C 3,9 C 54 % 88 % 1015,3 hPa 0,0 l/m 3,3 km/h (1 Bft) W 0,00 h 0,0 UV-I 0 W/m 2,2 C 3,8 C 6,5 km/h (2 Bft)
16.04.2017 05:00 24,0 C 3,8 C 55 % 88 % 1015,5 hPa 0,0 l/m 5,1 km/h (1 Bft) W-SW 0,00 h 0,0 UV-I 0 W/m 2,1 C 3,5 C 10,1 km/h (2 Bft)
16.04.2017 06:00 24,1 C 3,2 C 55 % 88 % 1015,8 hPa 0,0 l/m 6,3 km/h (2 Bft) W 0,00 h 0,0 UV-I 16 W/m 1,4 C 2,6 C 11,9 km/h (2 Bft)
16.04.2017 07:00 23,9 C 3,3 C 55 % 86 % 1016,3 hPa 0,0 l/m 5,8 km/h (2 Bft) W 0,00 h 0,0 UV-I 51 W/m 1,2 C 2,7 C 11,9 km/h (2 Bft)
16.04.2017 08:00 24,0 C 4,2 C 55 % 83 % 1016,9 hPa 0,0 l/m 4,7 km/h (1 Bft) W 0,53 h 0,9 UV-I 192 W/m 1,6 C 3,5 C 10,3 km/h (2 Bft)
16.04.2017 09:00 24,3 C 5,4 C 56 % 79 % 1016,8 hPa 0,0 l/m 5,4 km/h (1 Bft) W 1,00 h 1,4 UV-I 270 W/m 2,1 C 4,7 C 11,7 km/h (2 Bft)
16.04.2017 10:00 24,4 C 6,9 C 56 % 71 % 1016,9 hPa 0,0 l/m 10,4 km/h (2 Bft) W-NW 1,00 h 2,3 UV-I 426 W/m 1,9 C 4,0 C 18,3 km/h (3 Bft)
16.04.2017 11:00 24,3 C 8,5 C 55 % 59 % 1016,8 hPa 0,0 l/m 12,6 km/h (3 Bft) W-NW 1,00 h 3,0 UV-I 539 W/m 1,0 C 4,5 C 19,6 km/h (3 Bft)
16.04.2017 12:00 24,1 C 8,7 C 55 % 57 % 1016,6 hPa 0,2 l/m 13,2 km/h (3 Bft) W-NW 0,93 h 2,4 UV-I 335 W/m 0,7 C 4,6 C 20,9 km/h (4 Bft)
16.04.2017 13:00 24,1 C 9,1 C 54 % 53 % 1016,4 hPa 0,0 l/m 13,9 km/h (3 Bft) W 1,00 h 3,1 UV-I 458 W/m 0,1 C 4,9 C 23,0 km/h (4 Bft)
16.04.2017 14:00 24,1 C 8,2 C 54 % 63 % 1016,5 hPa 0,2 l/m 4,2 km/h (1 Bft) W-SW 0,80 h 2,7 UV-I 423 W/m 1,5 C 7,4 C 9,0 km/h (2 Bft)
16.04.2017 15:00 24,3 C 8,6 C 55 % 62 % 1016,1 hPa 0,0 l/m 5,6 km/h (1 Bft) W 1,00 h 2,3 UV-I 420 W/m 1,7 C 7,3 C 11,4 km/h (2 Bft)
16.04.2017 16:00 24,6 C 8,8 C 55 % 64 % 1016,1 hPa 0,0 l/m 9,8 km/h (2 Bft) N 0,85 h 1,5 UV-I 299 W/m 2,3 C 6,2 C 17,5 km/h (3 Bft)
16.04.2017 17:00 24,5 C 6,9 C 55 % 78 % 1016,5 hPa 0,8 l/m 5,8 km/h (1 Bft) N 0,17 h 0,7 UV-I 64 W/m 3,3 C 5,9 C 10,9 km/h (2 Bft)
16.04.2017 18:00 24,4 C 5,5 C 55 % 87 % 1016,5 hPa 0,0 l/m 0,9 km/h (0 Bft) W-NW 0,07 h 0,5 UV-I 80 W/m 3,5 C 5,5 C 2,0 km/h (1 Bft)
16.04.2017 19:00 24,5 C 5,6 C 56 % 86 % 1016,7 hPa 0,0 l/m 0,1 km/h (0 Bft) S-SW 0,00 h 0,0 UV-I 26 W/m 3,5 C 5,6 C 0,6 km/h (0 Bft)
16.04.2017 20:00 24,7 C 5,2 C 57 % 85 % 1017,2 hPa 0,0 l/m 2,2 km/h (1 Bft) W 0,00 h 0,0 UV-I 0 W/m 3,0 C 5,2 C 5,0 km/h (1 Bft)
16.04.2017 21:00 24,8 C 4,6 C 57 % 88 % 1017,7 hPa 0,0 l/m 0,1 km/h (0 Bft) W 0,00 h 0,0 UV-I 0 W/m 2,9 C 4,6 C 0,3 km/h (0 Bft)
16.04.2017 22:00 24,9 C 3,7 C 57 % 90 % 1017,9 hPa 0,0 l/m 0,0 km/h (0 Bft) N 0,00 h 0,0 UV-I 0 W/m 2,2 C 3,7 C 0,0 km/h (0 Bft)
16.04.2017 23:00 24,7 C 3,4 C 57 % 91 % 1017,9 hPa 0,0 l/m 0,0 km/h (0 Bft) N 0,00 h 0,0 UV-I 0 W/m 2,1 C 3,4 C 0,0 km/h (0 Bft)
Min-Datum _ 14.04.17 12.04.17 12.04.17 10.04.17 13.04.17 - 10.04.17 - - - - 16.04.17 16.04.17 10.04.17
_ Min-Zeit 10:43 04:40 13:03 16:45 05:30 - 00:00 - - - - 13:28 06:29 00:00
Minimum _ 23,3 C 2,1 C 40 % 30 % 1009,2 hPa - 0,0 km/h (0 Bft) - - - - -0,9 C -2,8 C 0,0 km/h (0 Bft)
Max-Datum _ 14.04.17 10.04.17 16.04.17 10.04.17 11.04.17 10.04.17 16.04.17 - 15.04.17 12.04.17 11.04.17 10.04.17 10.04.17 16.04.17
_ Max-Zeit 21:35 14:21 21:37 07:42 21:23 20:19 13:55 - 09:30 13:08 12:25 20:25 15:58 13:55
Maximum _ 24,9 C 22,4 C 58 % 94 % 1024,1 hPa 0,8 l/m 29,0 km/h
W (5 Bft)
- 0,10 h 5,3 UV-I 1030 W/m 10,2 C 22,1 C 41,8 km/h
W-NW (6 Bft)
Durchschnitt _ 24,1 C 8,9 C 50 % 70 % 1016,1 hPa #3,4 l/m 4,2 km/h (1 Bft) W #52:49 h 1,8 UV-I 234 W/m 3,4 C 8,2 C 8,3 km/h (2 Bft)